Bruce, Florida
Current Conditions -  °F | °C
As of 9:35 AM on Friday 24 Oct 2014 (Local Time) from K54J Reporting Station
Clear Clear  
Wind Chill: 62°   Ceiling: Unl
Heat Index: 62°   Visibility: 10mi
Dew Point: 47°   Wind: 6mph
Humidity: 58%   Direction: 50°NE
Pressure: 30.08"   Gusts: NA
Location:  30.678°N, 85.9545°W
Report Text: K54J 241435Z AUTO 05005KT 10SM CLR 17/08 A3008 RMK AO2 T01670083
Loading
Personal Weather Stations






























Interactive Weather Map
Tropical Storm Tracking
New forecast layout! Learn more

10-Day Weather Forecast

Advertisements
Track Severe Weather on mobile